createdAt,value
2023-03-05T00:02:02.728Z,15.73
2023-03-05T00:04:12.090Z,15.90
2023-03-05T00:06:17.024Z,15.82
2023-03-05T00:10:22.686Z,13.63
2023-03-05T00:12:25.477Z,14.20
2023-03-05T00:14:28.466Z,16.58
2023-03-05T00:16:31.908Z,14.98
2023-03-05T00:18:34.772Z,16.05
2023-03-05T00:20:38.924Z,17.40
2023-03-05T00:22:41.769Z,13.95
2023-03-05T00:24:44.542Z,17.25
2023-03-05T00:26:47.970Z,20.70
2023-03-05T00:28:51.866Z,20.25
2023-03-05T00:30:54.884Z,18.10
2023-03-05T00:32:57.733Z,16.83
2023-03-05T00:35:00.490Z,17.05
2023-03-05T00:37:04.685Z,16.50
2023-03-05T00:39:08.106Z,17.02
2023-03-05T00:41:10.934Z,16.73
2023-03-05T00:43:13.798Z,17.55
2023-03-05T00:45:16.575Z,15.52
2023-03-05T00:47:19.389Z,16.40
2023-03-05T00:49:22.260Z,15.45
2023-03-05T00:51:26.116Z,17.00
2023-03-05T00:53:30.228Z,15.93
2023-03-05T00:55:32.993Z,16.02
2023-03-05T00:57:35.836Z,18.05
2023-03-05T00:59:38.643Z,16.30
2023-03-05T01:01:41.545Z,18.40
2023-03-05T01:03:44.414Z,14.82
2023-03-05T01:05:47.486Z,17.05
2023-03-05T01:07:53.739Z,14.10
2023-03-05T01:09:57.997Z,16.77
2023-03-05T01:12:00.903Z,16.95
2023-03-05T01:14:03.833Z,14.38
2023-03-05T01:16:07.597Z,15.45
2023-03-05T01:18:10.519Z,14.70
2023-03-05T01:20:15.266Z,17.23
2023-03-05T01:22:18.062Z,15.63
2023-03-05T01:24:20.836Z,15.68
2023-03-05T01:26:24.993Z,16.10
2023-03-05T01:28:29.043Z,15.00
2023-03-05T01:30:31.867Z,15.25
2023-03-05T01:32:35.771Z,15.00
2023-03-05T01:34:38.823Z,14.83
2023-03-05T01:36:42.077Z,15.60
2023-03-05T01:38:46.259Z,15.32
2023-03-05T01:40:49.048Z,14.05
2023-03-05T01:43:00.953Z,15.45
2023-03-05T01:45:08.123Z,13.73
2023-03-05T01:47:10.965Z,13.13
2023-03-05T01:49:21.838Z,12.55
2023-03-05T01:51:29.496Z,13.55
2023-03-05T01:53:32.726Z,11.38
2023-03-05T01:55:37.159Z,13.32
2023-03-05T01:57:44.691Z,10.75
2023-03-05T01:59:52.310Z,10.90
2023-03-05T02:01:58.213Z,11.80
2023-03-05T02:04:01.973Z,11.32
2023-03-05T02:06:05.184Z,10.27
2023-03-05T02:08:10.104Z,9.48
2023-03-05T02:12:19.974Z,9.45
2023-03-05T02:14:24.304Z,8.18
2023-03-05T02:16:35.717Z,9.52
2023-03-05T02:18:39.265Z,9.57
2023-03-05T02:20:47.288Z,12.30
2023-03-05T02:22:52.038Z,12.95
2023-03-05T02:24:54.899Z,12.20
2023-03-05T02:26:57.750Z,10.73
2023-03-05T02:29:02.622Z,11.45
2023-03-05T02:31:10.212Z,9.90
2023-03-05T02:33:15.010Z,7.95
2023-03-05T02:35:18.369Z,11.23
2023-03-05T02:37:21.344Z,9.13
2023-03-05T02:39:25.491Z,9.50
2023-03-05T02:41:29.206Z,9.98
2023-03-05T02:43:33.976Z,10.25
2023-03-05T02:45:36.915Z,8.55
2023-03-05T02:47:39.870Z,10.38
2023-03-05T02:49:43.580Z,9.60
2023-03-05T02:51:46.410Z,9.88
2023-03-05T02:53:49.263Z,9.90
2023-03-05T02:55:53.912Z,10.63
2023-03-05T02:57:56.805Z,9.52
2023-03-05T02:59:59.771Z,10.65
2023-03-05T03:02:02.807Z,11.85
2023-03-05T03:04:05.903Z,10.20
2023-03-05T03:06:09.006Z,9.88
2023-03-05T03:08:11.861Z,9.88
2023-03-05T03:10:14.696Z,10.02
2023-03-05T03:12:18.854Z,9.95
2023-03-05T03:14:22.005Z,9.75
2023-03-05T03:16:24.877Z,10.25
2023-03-05T03:18:27.664Z,9.93
2023-03-05T03:20:30.537Z,9.85
2023-03-05T03:22:33.689Z,9.25
2023-03-05T03:24:37.940Z,10.77
2023-03-05T03:26:40.802Z,9.85
2023-03-05T03:28:45.207Z,11.10
2023-03-05T03:30:48.099Z,10.95
2023-03-05T03:32:52.425Z,12.77
2023-03-05T03:34:55.637Z,11.43
2023-03-05T03:36:58.461Z,11.60
2023-03-05T03:39:01.452Z,12.30
2023-03-05T03:41:07.681Z,12.70
2023-03-05T03:43:10.713Z,10.50
2023-03-05T03:45:15.569Z,11.00
2023-03-05T03:47:18.943Z,12.07
2023-03-05T03:49:23.509Z,13.02
2023-03-05T03:51:26.352Z,12.50
2023-03-05T03:53:29.130Z,12.30
2023-03-05T03:55:31.940Z,11.70
2023-03-05T03:57:34.797Z,14.23
2023-03-05T03:59:37.718Z,12.68
2023-03-05T04:01:42.196Z,12.35
2023-03-05T04:03:45.041Z,10.13
2023-03-05T04:05:47.833Z,10.45
2023-03-05T04:07:51.365Z,10.38
2023-03-05T04:09:54.337Z,10.27
2023-03-05T04:11:57.213Z,12.10
2023-03-05T04:14:00.007Z,12.98
2023-03-05T04:16:03.075Z,12.27
2023-03-05T04:18:07.318Z,11.52
2023-03-05T04:20:11.887Z,10.60
2023-03-05T04:24:17.961Z,10.65
2023-03-05T04:26:20.801Z,12.10
2023-03-05T04:28:23.615Z,12.55
2023-03-05T04:30:26.457Z,12.57
2023-03-05T04:32:29.805Z,12.95
2023-03-05T04:34:34.124Z,13.38
2023-03-05T04:36:36.963Z,14.05
2023-03-05T04:38:39.738Z,11.65
2023-03-05T04:40:42.607Z,12.73
2023-03-05T04:42:45.455Z,10.10
2023-03-05T04:44:49.308Z,12.68
2023-03-05T04:46:52.219Z,13.68
2023-03-05T04:48:55.057Z,14.38
2023-03-05T04:50:59.205Z,14.10
2023-03-05T04:53:02.041Z,14.23
2023-03-05T04:55:05.097Z,12.85
2023-03-05T04:57:11.402Z,13.63
2023-03-05T04:59:14.183Z,13.07
2023-03-05T05:01:17.007Z,13.25
2023-03-05T05:03:20.236Z,13.27
2023-03-05T05:05:25.309Z,13.18
2023-03-05T05:07:29.849Z,13.00
2023-03-05T05:09:32.671Z,13.82
2023-03-05T05:11:35.532Z,11.60
2023-03-05T05:13:38.363Z,12.75
2023-03-05T05:15:41.506Z,12.32
2023-03-05T05:17:44.445Z,12.52
2023-03-05T05:19:47.296Z,13.55
2023-03-05T05:21:50.081Z,13.60
2023-03-05T05:23:54.239Z,11.57
2023-03-05T05:25:59.220Z,12.30
2023-03-05T05:30:05.464Z,11.75
2023-03-05T05:32:08.950Z,13.43
2023-03-05T05:34:11.804Z,12.82
2023-03-05T05:36:19.040Z,11.55
2023-03-05T05:38:22.903Z,13.00
2023-03-05T05:40:27.066Z,12.10
2023-03-05T05:42:29.961Z,13.30
2023-03-05T05:44:34.852Z,13.13
2023-03-05T05:48:40.529Z,13.63
2023-03-05T05:50:43.331Z,12.23
2023-03-05T05:52:46.158Z,12.48
2023-03-05T05:54:48.996Z,12.73
2023-03-05T05:56:53.167Z,14.25
2023-03-05T05:58:56.007Z,12.85
2023-03-05T06:00:59.026Z,12.80
2023-03-05T06:03:01.883Z,11.93
2023-03-05T06:05:05.266Z,12.45
2023-03-05T06:07:08.180Z,13.02
2023-03-05T06:09:10.945Z,13.35
2023-03-05T06:11:14.215Z,12.98
2023-03-05T06:13:18.495Z,13.93
2023-03-05T06:15:21.321Z,13.45
2023-03-05T06:17:30.333Z,13.55
2023-03-05T06:19:33.768Z,13.55
2023-03-05T06:21:36.653Z,14.20
2023-03-05T06:23:39.469Z,13.45
2023-03-05T06:25:42.273Z,12.32
2023-03-05T06:27:45.187Z,12.23
2023-03-05T06:29:52.723Z,13.02
2023-03-05T06:31:55.551Z,12.82
2023-03-05T06:34:01.550Z,12.85
2023-03-05T06:36:05.344Z,12.27
2023-03-05T06:38:09.165Z,13.05
2023-03-05T06:40:16.399Z,13.38
2023-03-05T06:42:19.418Z,11.65
2023-03-05T06:44:22.292Z,11.48
2023-03-05T06:46:28.439Z,14.30
2023-03-05T06:48:31.430Z,12.48
2023-03-05T06:50:36.008Z,11.82
2023-03-05T06:52:40.904Z,12.02
2023-03-05T06:54:43.702Z,11.85
2023-03-05T06:56:47.658Z,11.65
2023-03-05T06:58:52.032Z,10.17
2023-03-05T07:00:54.862Z,12.40
2023-03-05T07:02:59.065Z,11.95
2023-03-05T07:05:01.881Z,11.38
2023-03-05T07:07:04.707Z,11.27
2023-03-05T07:09:09.364Z,10.30
2023-03-05T07:11:13.083Z,11.55
2023-03-05T07:13:15.880Z,10.65
2023-03-05T07:15:18.843Z,10.27
2023-03-05T07:17:21.685Z,9.70
2023-03-05T07:19:25.900Z,11.52
2023-03-05T07:21:31.372Z,9.73
2023-03-05T07:23:34.455Z,9.65
2023-03-05T07:25:38.173Z,10.70
2023-03-05T07:27:41.040Z,11.45
2023-03-05T07:29:43.973Z,9.88
2023-03-05T07:31:46.972Z,9.40
2023-03-05T07:33:51.147Z,9.13
2023-03-05T07:35:55.694Z,11.15
2023-03-05T07:37:58.524Z,10.40
2023-03-05T07:40:01.333Z,10.68
2023-03-05T07:42:04.398Z,11.05
2023-03-05T07:44:23.692Z,10.45
2023-03-05T07:46:30.045Z,9.40
2023-03-05T07:48:32.979Z,10.02
2023-03-05T07:50:35.855Z,11.20
2023-03-05T07:52:40.001Z,10.38
2023-03-05T07:54:43.722Z,10.35
2023-03-05T07:56:46.492Z,10.70
2023-03-05T07:58:49.293Z,9.75
2023-03-05T08:00:52.234Z,10.60
2023-03-05T08:02:55.073Z,10.57
2023-03-05T08:04:58.020Z,10.77
2023-03-05T08:07:00.821Z,10.18
2023-03-05T08:09:05.284Z,10.57
2023-03-05T08:11:10.268Z,9.65
2023-03-05T08:13:13.199Z,9.45
2023-03-05T08:15:16.043Z,9.57
2023-03-05T08:17:18.910Z,10.38
2023-03-05T08:19:22.042Z,9.50
2023-03-05T08:21:29.182Z,10.20
2023-03-05T08:23:32.022Z,9.50
2023-03-05T08:25:36.163Z,9.88
2023-03-05T08:27:40.226Z,10.13
2023-03-05T08:29:43.051Z,9.73
2023-03-05T08:31:46.958Z,10.75
2023-03-05T08:33:51.229Z,10.15
2023-03-05T08:35:54.058Z,9.93
2023-03-05T08:37:56.891Z,8.98
2023-03-05T08:39:59.885Z,9.48
2023-03-05T08:42:04.634Z,9.32
2023-03-05T08:44:07.775Z,8.80
2023-03-05T08:46:11.692Z,9.93
2023-03-05T08:48:14.895Z,7.87
2023-03-05T08:50:22.225Z,8.95
2023-03-05T08:52:27.231Z,9.55
2023-03-05T08:56:32.772Z,9.02
2023-03-05T08:58:37.036Z,9.52
2023-03-05T09:00:39.846Z,8.55
2023-03-05T09:02:42.762Z,7.78
2023-03-05T09:04:45.594Z,9.55
2023-03-05T09:06:48.531Z,8.90
2023-03-05T09:08:51.368Z,9.93
2023-03-05T09:10:54.155Z,8.70
2023-03-05T09:12:57.076Z,12.02
2023-03-05T09:15:01.166Z,10.85
2023-03-05T09:17:04.007Z,9.73
2023-03-05T09:19:08.918Z,8.57
2023-03-05T09:23:15.847Z,7.95
2023-03-05T09:25:18.744Z,8.68
2023-03-05T09:27:21.788Z,7.70
2023-03-05T09:29:24.562Z,7.55
2023-03-05T09:31:28.745Z,7.22
2023-03-05T09:33:31.753Z,7.03
2023-03-05T09:35:36.468Z,7.55
2023-03-05T09:37:39.305Z,7.50
2023-03-05T09:39:42.115Z,7.32
2023-03-05T09:42:08.675Z,7.53
2023-03-05T09:44:23.736Z,7.70
2023-03-05T09:46:44.894Z,7.20
2023-03-05T09:48:52.103Z,7.45
2023-03-05T09:51:01.003Z,7.03
2023-03-05T09:53:08.523Z,7.35
2023-03-05T09:55:15.557Z,6.60
2023-03-05T09:57:23.320Z,6.22
2023-03-05T09:59:35.909Z,6.28
2023-03-05T10:01:43.620Z,6.03
2023-03-05T10:03:56.789Z,6.72
2023-03-05T10:06:17.864Z,6.30
2023-03-05T10:08:28.395Z,5.68
2023-03-05T10:10:41.025Z,4.95
2023-03-05T10:12:45.774Z,5.80
2023-03-05T10:14:50.324Z,6.85
2023-03-05T10:17:20.992Z,7.47
2023-03-05T10:19:42.712Z,5.75
2023-03-05T10:21:54.508Z,6.18
2023-03-05T10:24:06.902Z,5.93
2023-03-05T10:26:21.305Z,5.82
2023-03-05T10:28:34.824Z,5.85
2023-03-05T10:31:05.229Z,6.38
2023-03-05T10:33:16.560Z,5.97
2023-03-05T10:35:34.816Z,6.50
2023-03-05T10:38:02.436Z,6.53
2023-03-05T10:40:16.999Z,5.20
2023-03-05T10:42:31.028Z,7.22
2023-03-05T10:44:38.526Z,6.75
2023-03-05T10:46:42.138Z,7.15
2023-03-05T10:48:51.932Z,6.70
2023-03-05T10:51:00.916Z,6.03
2023-03-05T10:53:14.907Z,6.10
2023-03-05T10:55:20.601Z,5.68
2023-03-05T10:57:26.326Z,5.47
2023-03-05T10:59:29.334Z,5.90
2023-03-05T11:01:33.160Z,5.28
2023-03-05T11:03:51.923Z,5.78
2023-03-05T11:06:00.943Z,6.13
2023-03-05T11:08:25.212Z,5.40
2023-03-05T11:10:28.248Z,5.47
2023-03-05T11:12:32.602Z,5.88
2023-03-05T11:14:38.679Z,4.28
2023-03-05T11:16:48.940Z,6.75
2023-03-05T11:19:17.657Z,7.20
2023-03-05T11:21:23.923Z,5.38
2023-03-05T11:23:27.161Z,5.28
2023-03-05T11:25:30.035Z,5.63
2023-03-05T11:27:36.186Z,5.20
2023-03-05T11:29:49.314Z,5.88
2023-03-05T11:31:53.185Z,5.03
2023-03-05T11:34:00.184Z,5.55
2023-03-05T11:36:24.177Z,4.95
2023-03-05T11:38:28.553Z,6.47
2023-03-05T11:40:35.579Z,5.70
2023-03-05T11:42:41.819Z,5.70
2023-03-05T11:44:49.485Z,5.22
2023-03-05T11:46:57.270Z,5.05
2023-03-05T11:49:02.532Z,4.30
2023-03-05T11:51:09.728Z,4.03
2023-03-05T11:53:19.531Z,3.58
2023-03-05T11:55:29.508Z,3.70
2023-03-05T11:57:42.586Z,4.65
2023-03-05T11:59:46.109Z,4.70
2023-03-05T12:01:52.642Z,4.13
2023-03-05T12:03:56.473Z,4.45
2023-03-05T12:06:10.004Z,4.35
2023-03-05T12:08:16.370Z,4.22
2023-03-05T12:10:21.845Z,4.88
2023-03-05T12:12:38.090Z,4.68
2023-03-05T12:14:46.541Z,4.47
2023-03-05T12:16:54.596Z,4.47
2023-03-05T12:19:09.820Z,3.83
2023-03-05T12:21:26.033Z,3.17
2023-03-05T12:23:29.151Z,3.95
2023-03-05T12:25:34.938Z,3.03
2023-03-05T12:27:39.415Z,2.35
2023-03-05T12:29:49.007Z,1.90
2023-03-05T12:31:51.892Z,2.67
2023-03-05T12:33:54.763Z,2.40
2023-03-05T12:36:36.137Z,2.17
2023-03-05T12:38:39.344Z,2.53
2023-03-05T12:40:42.887Z,1.90
2023-03-05T12:43:04.220Z,2.55
2023-03-05T12:45:42.102Z,2.28
2023-03-05T12:47:46.326Z,2.60
2023-03-05T12:49:49.580Z,2.38
2023-03-05T12:51:55.647Z,3.22
2023-03-05T12:54:01.406Z,3.38
2023-03-05T12:56:15.782Z,9.02
2023-03-05T12:58:22.694Z,2.40
2023-03-05T13:00:28.953Z,3.45
2023-03-05T13:02:37.734Z,2.03
2023-03-05T13:04:46.741Z,2.78
2023-03-05T13:07:00.991Z,2.75
2023-03-05T13:09:06.254Z,2.78
2023-03-05T13:11:17.683Z,3.58
2023-03-05T13:13:21.951Z,2.70
2023-03-05T13:15:26.777Z,3.38
2023-03-05T13:19:36.087Z,3.63
2023-03-05T13:21:38.884Z,4.13
2023-03-05T13:23:49.830Z,2.95
2023-03-05T13:26:12.799Z,3.72
2023-03-05T13:28:17.623Z,4.00
2023-03-05T13:30:26.526Z,3.55
2023-03-05T13:32:32.074Z,4.10
2023-03-05T13:34:47.169Z,4.40
2023-03-05T13:36:57.105Z,3.40
2023-03-05T13:39:02.269Z,4.18
2023-03-05T13:41:08.290Z,3.78
2023-03-05T13:43:13.535Z,3.90
2023-03-05T13:45:24.548Z,4.55
2023-03-05T13:47:29.554Z,3.63
2023-03-05T13:51:42.721Z,4.03
2023-03-05T13:53:46.165Z,4.00
2023-03-05T13:55:52.168Z,3.50
2023-03-05T13:57:55.179Z,4.28
2023-03-05T13:59:57.980Z,4.07
2023-03-05T14:02:02.545Z,3.30
2023-03-05T14:04:18.128Z,4.55
2023-03-05T14:06:23.864Z,3.58
2023-03-05T14:08:27.910Z,3.45
2023-03-05T14:10:35.143Z,3.53
2023-03-05T14:12:42.701Z,3.38
2023-03-05T14:14:46.268Z,5.00
2023-03-05T14:16:49.397Z,5.38
2023-03-05T14:18:54.420Z,4.40
2023-03-05T14:21:07.519Z,4.70
2023-03-05T14:23:27.289Z,4.57
2023-03-05T14:25:34.932Z,3.65
2023-03-05T14:27:40.475Z,3.92
2023-03-05T14:29:46.876Z,3.78
2023-03-05T14:31:52.501Z,4.03
2023-03-05T14:34:00.817Z,3.70
2023-03-05T14:36:05.136Z,3.95
2023-03-05T14:38:09.000Z,3.95
2023-03-05T14:40:22.249Z,3.47
2023-03-05T14:42:28.649Z,4.28
2023-03-05T14:44:32.847Z,3.83
2023-03-05T14:46:35.650Z,4.40
2023-03-05T14:48:38.479Z,4.38
2023-03-05T14:50:44.585Z,3.78
2023-03-05T14:52:48.265Z,4.47
2023-03-05T14:54:51.868Z,4.93
2023-03-05T14:56:54.864Z,5.38
2023-03-05T14:58:58.238Z,4.55
2023-03-05T15:01:02.988Z,4.38
2023-03-05T15:03:05.872Z,3.88
2023-03-05T15:05:09.527Z,4.13
2023-03-05T15:07:18.231Z,3.15
2023-03-05T15:09:21.263Z,3.55
2023-03-05T15:11:24.443Z,4.10
2023-03-05T15:13:27.882Z,3.35
2023-03-05T15:15:30.845Z,3.10
2023-03-05T15:17:37.585Z,3.85
2023-03-05T15:19:40.378Z,4.10
2023-03-05T15:21:43.228Z,3.40
2023-03-05T15:23:46.040Z,4.60
2023-03-05T15:25:48.895Z,4.10
2023-03-05T15:27:51.874Z,4.22
2023-03-05T15:29:54.686Z,3.47
2023-03-05T15:31:57.558Z,3.60
2023-03-05T15:34:01.662Z,3.97
2023-03-05T15:36:05.246Z,3.65
2023-03-05T15:38:08.509Z,3.72
2023-03-05T15:40:13.236Z,3.83
2023-03-05T15:42:16.227Z,3.65
2023-03-05T15:44:19.453Z,3.38
2023-03-05T15:46:22.349Z,3.78
2023-03-05T15:48:25.286Z,4.00
2023-03-05T15:50:29.812Z,3.08
2023-03-05T15:52:32.962Z,4.28
2023-03-05T15:54:36.637Z,3.60
2023-03-05T15:56:40.854Z,3.92
2023-03-05T15:58:44.301Z,3.80
2023-03-05T16:00:48.986Z,3.90
2023-03-05T16:02:51.991Z,3.28
2023-03-05T16:04:54.869Z,3.40
2023-03-05T16:07:02.898Z,3.40
2023-03-05T16:09:07.145Z,4.13
2023-03-05T16:11:10.148Z,4.18
2023-03-05T16:13:16.531Z,3.72
2023-03-05T16:15:21.760Z,3.22
2023-03-05T16:17:25.394Z,3.60
2023-03-05T16:19:28.962Z,3.53
2023-03-05T16:21:32.254Z,2.90
2023-03-05T16:23:36.461Z,3.67
2023-03-05T16:25:39.363Z,3.53
2023-03-05T16:27:42.158Z,3.20
2023-03-05T16:29:45.977Z,3.63
2023-03-05T16:31:48.928Z,4.15
2023-03-05T16:33:53.924Z,4.50
2023-03-05T16:36:20.665Z,4.40
2023-03-05T16:38:23.434Z,3.60
2023-03-05T16:40:44.465Z,4.90
2023-03-05T16:42:50.982Z,4.50
2023-03-05T16:44:54.142Z,4.20
2023-03-05T16:46:57.077Z,4.50
2023-03-05T16:48:59.929Z,4.95
2023-03-05T16:51:02.793Z,3.55
2023-03-05T16:53:05.645Z,4.03
2023-03-05T16:55:08.941Z,4.65
2023-03-05T16:57:13.129Z,4.13
2023-03-05T16:59:15.943Z,4.28
2023-03-05T17:01:20.402Z,4.97
2023-03-05T17:03:23.486Z,4.00
2023-03-05T17:05:28.098Z,5.13
2023-03-05T17:07:30.987Z,3.75
2023-03-05T17:09:34.395Z,4.15
2023-03-05T17:11:37.256Z,3.45
2023-03-05T17:13:42.263Z,3.72
2023-03-05T17:17:47.705Z,3.60
2023-03-05T17:19:50.482Z,4.88
2023-03-05T17:21:53.335Z,3.88
2023-03-05T17:23:56.683Z,5.20
2023-03-05T17:25:59.536Z,4.47
2023-03-05T17:28:02.329Z,4.60
2023-03-05T17:30:08.398Z,6.00
2023-03-05T17:32:11.312Z,5.40
2023-03-05T17:34:14.280Z,4.55
2023-03-05T17:36:22.752Z,4.22
2023-03-05T17:38:26.204Z,4.40
2023-03-05T17:40:29.061Z,3.70
2023-03-05T17:42:31.919Z,3.90
2023-03-05T17:44:34.778Z,4.50
2023-03-05T17:46:39.059Z,4.82
2023-03-05T17:48:42.215Z,4.03
2023-03-05T17:50:46.142Z,3.35
2023-03-05T17:52:48.986Z,4.13
2023-03-05T17:54:53.047Z,3.67
2023-03-05T17:56:56.680Z,4.10
2023-03-05T17:59:00.258Z,3.58
2023-03-05T18:01:03.306Z,3.97
2023-03-05T18:03:07.393Z,3.72
2023-03-05T18:05:10.489Z,4.22
2023-03-05T18:07:13.543Z,4.22
2023-03-05T18:09:16.348Z,3.78
2023-03-05T18:11:20.025Z,3.50
2023-03-05T18:13:22.772Z,3.72
2023-03-05T18:15:27.341Z,3.67
2023-03-05T18:17:30.264Z,3.83
2023-03-05T18:19:34.391Z,3.75
2023-03-05T18:21:37.357Z,4.00
2023-03-05T18:23:40.165Z,4.05
2023-03-05T18:25:44.282Z,4.03
2023-03-05T18:27:47.128Z,3.58
2023-03-05T18:29:53.808Z,3.17
2023-03-05T18:31:56.611Z,3.63
2023-03-05T18:33:59.530Z,3.70
2023-03-05T18:36:03.720Z,3.92
2023-03-05T18:38:06.636Z,4.32
2023-03-05T18:40:14.185Z,3.70
2023-03-05T18:42:16.928Z,3.28
2023-03-05T18:44:20.773Z,3.42
2023-03-05T18:46:23.687Z,3.70
2023-03-05T18:48:26.671Z,3.30
2023-03-05T18:50:30.217Z,3.58
2023-03-05T18:52:34.352Z,3.17
2023-03-05T18:54:37.210Z,4.05
2023-03-05T18:56:40.069Z,3.35
2023-03-05T18:58:42.928Z,3.45
2023-03-05T19:00:47.038Z,3.67
2023-03-05T19:02:50.307Z,4.20
2023-03-05T19:04:53.186Z,4.18
2023-03-05T19:06:56.049Z,4.38
2023-03-05T19:09:05.304Z,4.38
2023-03-05T19:11:16.033Z,4.82
2023-03-05T19:13:28.070Z,5.85
2023-03-05T19:15:30.888Z,7.22
2023-03-05T19:17:34.537Z,6.05
2023-03-05T19:19:37.371Z,5.50
2023-03-05T19:21:42.113Z,5.80
2023-03-05T19:23:44.934Z,5.40
2023-03-05T19:25:49.064Z,4.93
2023-03-05T19:27:52.131Z,5.65
2023-03-05T19:29:54.995Z,6.03
2023-03-05T19:31:57.818Z,4.32
2023-03-05T19:34:01.161Z,5.97
2023-03-05T19:36:04.035Z,5.72
2023-03-05T19:38:06.842Z,5.75
2023-03-05T19:40:11.165Z,6.60
2023-03-05T19:42:15.437Z,5.28
2023-03-05T19:44:19.199Z,5.38
2023-03-05T19:46:23.317Z,5.45
2023-03-05T19:48:26.252Z,4.97
2023-03-05T19:50:29.078Z,5.10
2023-03-05T19:52:32.140Z,5.28
2023-03-05T19:54:35.171Z,4.88
2023-03-05T19:56:38.791Z,5.53
2023-03-05T19:58:45.320Z,5.15
2023-03-05T20:00:48.109Z,5.32
2023-03-05T20:02:50.960Z,5.22
2023-03-05T20:04:55.707Z,5.38
2023-03-05T20:06:58.971Z,5.43
2023-03-05T20:09:01.834Z,4.90
2023-03-05T20:11:05.508Z,5.53
2023-03-05T20:13:08.484Z,5.50
2023-03-05T20:15:12.840Z,5.05
2023-03-05T20:17:15.855Z,5.25
2023-03-05T20:19:20.196Z,5.13
2023-03-05T20:21:25.251Z,4.60
2023-03-05T20:23:29.116Z,5.13
2023-03-05T20:25:32.011Z,4.68
2023-03-05T20:27:34.859Z,5.07
2023-03-05T20:29:37.628Z,5.03
2023-03-05T20:31:42.139Z,4.78
2023-03-05T20:33:45.317Z,4.82
2023-03-05T20:35:48.180Z,5.63
2023-03-05T20:38:01.512Z,5.70
2023-03-05T20:40:04.780Z,5.35
2023-03-05T20:42:07.604Z,5.07
2023-03-05T20:44:11.370Z,6.20
2023-03-05T20:46:19.110Z,5.32
2023-03-05T20:48:23.896Z,5.63
2023-03-05T20:50:27.815Z,4.80
2023-03-05T20:52:31.567Z,4.60
2023-03-05T20:54:34.522Z,5.22
2023-03-05T20:56:38.008Z,4.95
2023-03-05T20:58:40.821Z,5.30
2023-03-05T21:00:43.850Z,5.60
2023-03-05T21:02:46.843Z,4.65
2023-03-05T21:04:50.978Z,4.93
2023-03-05T21:06:54.175Z,4.72
2023-03-05T21:08:57.806Z,5.70
2023-03-05T21:11:01.175Z,5.80
2023-03-05T21:13:03.971Z,4.80
2023-03-05T21:15:08.014Z,4.93
2023-03-05T21:17:10.902Z,5.57
2023-03-05T21:19:13.747Z,5.45
2023-03-05T21:21:36.602Z,5.72
2023-03-05T21:23:57.705Z,4.72
2023-03-05T21:26:19.049Z,5.88
2023-03-05T21:28:41.231Z,5.30
2023-03-05T21:31:08.655Z,4.93
2023-03-05T21:33:31.504Z,5.13
2023-03-05T21:35:54.314Z,5.90
2023-03-05T21:37:58.461Z,5.80
2023-03-05T21:40:01.304Z,5.88
2023-03-05T21:42:05.084Z,11.25
2023-03-05T21:44:08.740Z,9.88
2023-03-05T21:46:12.509Z,6.55
2023-03-05T21:48:16.406Z,6.80
2023-03-05T21:50:19.996Z,6.05
2023-03-05T21:52:22.852Z,6.07
2023-03-05T21:54:28.741Z,5.65
2023-03-05T21:56:31.885Z,5.72
2023-03-05T21:58:35.492Z,6.18
2023-03-05T22:00:38.304Z,5.90
2023-03-05T22:02:42.031Z,6.40
2023-03-05T22:04:45.541Z,6.00
2023-03-05T22:06:48.326Z,6.35
2023-03-05T22:08:51.108Z,6.30
2023-03-05T22:10:55.268Z,5.88
2023-03-05T22:13:06.831Z,6.10
2023-03-05T22:15:11.046Z,6.22
2023-03-05T22:17:13.942Z,5.75
2023-03-05T22:19:16.704Z,5.80
2023-03-05T22:21:21.436Z,6.68
2023-03-05T22:23:29.114Z,6.07
2023-03-05T22:25:35.170Z,6.43
2023-03-05T22:27:42.761Z,6.32
2023-03-05T22:29:45.818Z,7.40
2023-03-05T22:31:48.632Z,7.63
2023-03-05T22:33:51.504Z,6.57
2023-03-05T22:35:54.615Z,7.53
2023-03-05T22:37:58.570Z,7.57
2023-03-05T22:40:01.363Z,6.80
2023-03-05T22:42:04.814Z,7.72
2023-03-05T22:44:08.962Z,6.88
2023-03-05T22:46:12.599Z,7.32
2023-03-05T22:48:15.774Z,6.70
2023-03-05T22:50:19.109Z,8.38
2023-03-05T22:52:21.928Z,8.68
2023-03-05T22:54:24.682Z,7.40
2023-03-05T22:56:27.637Z,6.80
2023-03-05T22:58:30.454Z,9.10
2023-03-05T23:00:34.738Z,8.38
2023-03-05T23:02:37.535Z,8.70
2023-03-05T23:04:49.004Z,8.32
2023-03-05T23:06:51.971Z,8.90
2023-03-05T23:08:54.799Z,8.63
2023-03-05T23:10:57.561Z,8.48
2023-03-05T23:13:01.908Z,8.32
2023-03-05T23:15:06.974Z,8.35
2023-03-05T23:17:11.133Z,8.20
2023-03-05T23:19:13.989Z,8.15
2023-03-05T23:21:16.745Z,7.43
2023-03-05T23:23:19.512Z,8.95
2023-03-05T23:25:24.388Z,9.30
2023-03-05T23:27:27.150Z,9.18
2023-03-05T23:29:33.282Z,9.35
2023-03-05T23:31:36.322Z,9.07
2023-03-05T23:33:41.169Z,9.27
2023-03-05T23:35:51.485Z,9.00
2023-03-05T23:37:56.397Z,10.15
2023-03-05T23:40:00.365Z,8.85
2023-03-05T23:42:03.201Z,9.60
2023-03-05T23:44:06.388Z,9.40
2023-03-05T23:46:11.664Z,8.90
2023-03-05T23:48:15.457Z,8.82
2023-03-05T23:50:21.949Z,9.35
2023-03-05T23:52:24.689Z,9.77
2023-03-05T23:54:28.315Z,9.82
2023-03-05T23:56:31.458Z,11.25
2023-03-05T23:58:36.130Z,10.73
